Time;durP1;ratioP1;P1;durP2;ratioP2;P2;SDS_P1;SDS_P2;PMS_P1;PMS_P2;Temp;Humidity;BMP_temperature;BMP_pressure;BME280_temperature;BME280_humidity;BME280_pressure;Samples;Min_cycle;Max_cycle;Signal;HPM_P1;HPM_P2
2022/09/20 00:01:06;;;;;;;3.85;0.60;;;;;;;15.11;49.05;99563.69;3137863;28;20105;-61
2022/09/20 00:02:38;;;;;;;2.40;0.30;;;;;;;15.11;49.11;99563.69;3141026;28;20556;-59
2022/09/20 00:04:10;;;;;;;4.95;0.52;;;;;;;15.09;48.88;99555.13;3146569;28;20060;-60
2022/09/20 00:05:44;;;;;;;7.90;0.70;;;;;;;15.11;48.69;99560.25;3146855;28;20135;-59
2022/09/20 00:07:16;;;;;;;1.65;0.30;;;;;;;15.09;48.82;99555.13;3147061;28;20289;-60
2022/09/20 00:08:48;;;;;;;3.03;0.63;;;;;;;15.11;48.79;99561.06;3146831;28;20052;-60
2022/09/20 00:10:22;;;;;;;1.45;0.38;;;;;;;15.09;48.88;99557.75;3146659;28;20055;-60
2022/09/20 00:11:55;;;;;;;1.38;0.60;;;;;;;15.10;49.09;99556.78;3147160;28;20048;-60
2022/09/20 00:13:28;;;;;;;1.27;0.50;;;;;;;15.08;48.78;99558.66;3146693;28;20072;-60
2022/09/20 00:14:59;;;;;;;0.80;0.40;;;;;;;15.06;48.99;99563.19;3146666;28;20052;-60
2022/09/20 00:16:34;;;;;;;1.25;0.43;;;;;;;15.06;48.97;99557.13;3146334;28;20056;-59
2022/09/20 00:18:05;;;;;;;0.77;0.40;;;;;;;15.09;48.82;99563.00;3146416;28;20055;-59
2022/09/20 00:19:37;;;;;;;2.20;0.43;;;;;;;15.13;48.55;99553.13;3146814;28;20055;-60
2022/09/20 00:21:16;;;;;;;0.52;0.30;;;;;;;15.12;48.54;99547.03;3146768;28;20048;-60
2022/09/20 00:22:48;;;;;;;4.93;0.60;;;;;;;15.12;48.55;99546.22;3146240;28;20060;-60
2022/09/20 00:24:20;;;;;;;0.60;0.30;;;;;;;15.11;48.57;99547.97;3146464;28;20048;-60
2022/09/20 00:25:56;;;;;;;0.77;0.40;;;;;;;15.13;48.60;99545.25;3145633;28;20105;-60
2022/09/20 00:27:30;;;;;;;1.17;0.50;;;;;;;15.12;48.49;99544.41;3146083;28;20091;-60
2022/09/20 00:29:02;;;;;;;1.02;0.65;;;;;;;15.13;48.67;99545.25;3145814;28;20060;-60
2022/09/20 00:30:35;;;;;;;3.40;0.82;;;;;;;15.12;48.56;99536.53;3145841;28;20487;-60
2022/09/20 00:32:06;;;;;;;3.33;0.45;;;;;;;15.17;48.22;99544.94;3143387;28;20532;-60
2022/09/20 00:35:28;;;;;;;1.33;0.43;;;;;;;15.16;48.56;99548.50;3145834;28;20052;-60
2022/09/20 00:36:59;;;;;;;3.22;0.60;;;;;;;15.12;48.14;99544.41;3141647;28;20076;-60
2022/09/20 00:38:31;;;;;;;0.68;0.40;;;;;;;15.11;48.18;99553.22;3145653;28;20059;-60
2022/09/20 00:40:04;;;;;;;1.50;0.38;;;;;;;15.09;48.19;99555.13;3145505;28;20098;-60
2022/09/20 00:41:36;;;;;;;1.30;0.43;;;;;;;15.10;48.50;99567.28;3145430;28;20058;-60
2022/09/20 00:43:13;;;;;;;0.80;0.50;;;;;;;15.08;48.22;99555.22;3145655;28;20072;-60
2022/09/20 00:44:55;;;;;;;6.50;0.55;;;;;;;15.06;48.64;99551.88;3145618;28;20048;-60
2022/09/20 00:46:34;;;;;;;6.25;0.50;;;;;;;15.05;48.45;99563.28;3145357;28;20056;-60
2022/09/20 00:48:13;;;;;;;0.43;0.25;;;;;;;15.06;48.63;99557.13;3145238;28;20514;-60
2022/09/20 00:49:44;;;;;;;2.28;0.30;;;;;;;15.05;48.45;99545.75;3145193;28;20049;-59
2022/09/20 00:51:24;;;;;;;4.97;0.43;;;;;;;15.05;48.59;99556.25;3145648;28;20258;-60
2022/09/20 00:53:01;;;;;;;0.57;0.32;;;;;;;15.04;48.58;99553.75;3145362;28;20056;-60
2022/09/20 00:54:34;;;;;;;2.95;0.50;;;;;;;15.03;48.68;99552.91;3145080;28;20056;-61
2022/09/20 00:56:10;;;;;;;0.93;0.30;;;;;;;15.02;48.75;99559.94;3145359;28;20051;-60
2022/09/20 00:57:43;;;;;;;0.70;0.40;;;;;;;15.01;48.65;99565.28;3145488;28;20337;-61
2022/09/20 00:59:21;;;;;;;0.68;0.30;;;;;;;15.02;49.10;99566.94;3141254;28;20089;-61
2022/09/20 01:00:55;;;;;;;1.13;0.30;;;;;;;14.99;48.85;99552.25;3145826;28;20127;-61
2022/09/20 01:02:30;;;;;;;1.45;0.60;;;;;;;15.02;48.76;99559.06;3139041;28;20055;-61
2022/09/20 01:04:03;;;;;;;0.82;0.30;;;;;;;14.99;49.39;99559.28;3145093;28;20051;-61
2022/09/20 01:05:37;;;;;;;1.52;0.38;;;;;;;14.97;49.21;99556.78;3145883;28;20502;-60
2022/09/20 01:07:10;;;;;;;;;;;;;;;14.95;49.51;99553.41;3146394;28;20110;-60
2022/09/20 01:08:46;;;;;;;0.63;0.47;;;;;;;14.90;49.38;99555.50;3146286;28;20325;-61
2022/09/20 01:10:18;;;;;;;1.88;0.50;;;;;;;14.89;49.54;99553.81;3146258;28;20053;-60
2022/09/20 01:11:51;;;;;;;1.33;0.40;;;;;;;14.74;49.79;99539.97;3146092;28;20049;-61
2022/09/20 01:13:22;;;;;;;1.38;0.50;;;;;;;14.83;50.00;99550.78;3145834;28;20063;-61
2022/09/20 01:14:57;;;;;;;0.60;0.30;;;;;;;14.81;50.22;99557.91;3145852;28;20052;-60
2022/09/20 01:16:30;;;;;;;1.00;0.35;;;;;;;14.78;50.08;99551.06;3146337;28;20136;-60
2022/09/20 01:18:03;;;;;;;0.80;0.40;;;;;;;14.76;50.22;99550.34;3146175;28;20056;-61
2022/09/20 01:19:46;;;;;;;0.63;0.40;;;;;;;14.73;50.58;99551.41;3146003;28;20437;-60
2022/09/20 01:21:19;;;;;;;0.70;0.40;;;;;;;14.70;50.86;99561.22;3139674;28;20081;-61
2022/09/20 01:23:17;;;;;;;0.43;0.30;;;;;;;14.69;50.61;99557.75;3146153;28;20048;-60
2022/09/20 01:24:56;;;;;;;0.50;0.35;;;;;;;14.66;50.67;99562.38;3141802;28;20067;-61
2022/09/20 01:26:52;;;;;;;4.55;0.50;;;;;;;14.67;50.89;99551.81;3146103;28;20454;-60
2022/09/20 01:28:27;;;;;;;0.88;0.40;;;;;;;14.63;50.89;99549.47;3145692;28;20125;-60
2022/09/20 01:30:05;;;;;;;1.23;0.38;;;;;;;14.55;50.90;99534.25;3145797;28;20052;-61
2022/09/20 01:31:43;;;;;;;1.90;0.20;;;;;;;14.63;50.90;99557.34;3146223;28;20063;-61
2022/09/20 01:33:23;;;;;;;1.10;0.45;;;;;;;14.61;51.27;99560.06;3147337;28;20052;-60
2022/09/20 01:35:01;;;;;;;1.05;0.30;;;;;;;14.58;51.13;99560.25;3146257;28;20048;-61
2022/09/20 01:36:38;;;;;;;0.60;0.40;;;;;;;14.56;51.25;99562.97;3145581;28;20102;-60
2022/09/20 01:38:25;;;;;;;3.17;0.82;;;;;;;14.55;51.55;99556.06;3145453;28;20064;-60
2022/09/20 01:40:08;;;;;;;0.63;0.35;;;;;;;14.59;51.25;99545.38;3145828;28;20053;-61
2022/09/20 01:41:45;;;;;;;0.63;0.20;;;;;;;14.59;51.27;99553.25;3145446;28;20118;-61
2022/09/20 01:43:23;;;;;;;1.15;0.60;;;;;;;14.50;51.22;99546.81;3145753;28;20049;-61
2022/09/20 01:45:03;;;;;;;3.55;0.40;;;;;;;14.53;51.67;99551.88;3145883;28;20128;-60
2022/09/20 01:46:36;;;;;;;1.35;0.30;;;;;;;14.53;51.59;99546.63;3145767;28;20436;-60
2022/09/20 01:48:16;;;;;;;1.02;0.30;;;;;;;14.52;51.70;99556.28;3145670;28;20095;-60
2022/09/20 01:49:57;;;;;;;3.03;0.40;;;;;;;14.51;51.49;99559.81;3145601;28;20381;-60
2022/09/20 01:52:10;;;;;;;1.10;0.30;;;;;;;14.50;51.57;99557.28;3145480;28;20045;-61
2022/09/20 01:54:29;;;;;;;0.80;0.30;;;;;;;14.51;51.52;99556.31;3145801;28;20517;-60
2022/09/20 01:56:45;;;;;;;0.60;0.30;;;;;;;14.48;51.74;99551.28;3120750;28;20053;-61
2022/09/20 01:58:34;;;;;;;;;;;;;;;14.45;51.50;99559.34;3146077;28;20052;-60
2022/09/20 02:00:13;;;;;;;6.95;0.40;;;;;;;14.29;51.76;99535.94;3145318;28;20313;-60
2022/09/20 02:02:09;;;;;;;2.03;0.40;;;;;;;14.39;51.67;99557.13;3145426;28;20048;-60
2022/09/20 02:03:58;;;;;;;1.83;0.35;;;;;;;14.39;51.64;99557.13;3145262;28;20044;-60
2022/09/20 02:06:13;;;;;;;1.13;0.30;;;;;;;14.33;51.80;99558.38;3145251;28;20079;-60
2022/09/20 02:08:08;;;;;;;1.35;0.40;;;;;;;14.26;51.66;99560.53;3142133;28;20532;-60
2022/09/20 02:10:03;;;;;;;1.13;0.40;;;;;;;14.25;51.54;99561.47;3133441;28;20087;-60
2022/09/20 02:11:49;;;;;;;1.52;0.43;;;;;;;14.24;51.49;99553.72;3137120;28;20145;-60
2022/09/20 02:13:29;;;;;;;0.68;0.40;;;;;;;14.15;51.43;99547.28;3137334;28;20049;-60
2022/09/20 02:15:16;;;;;;;0.68;0.30;;;;;;;14.25;51.18;99560.63;3140233;28;20585;-60
2022/09/20 02:16:54;;;;;;;0.75;0.38;;;;;;;14.23;51.31;99560.75;3140319;28;20091;-60
2022/09/20 02:18:43;;;;;;;2.22;0.22;;;;;;;14.20;51.10;99566.19;3140174;28;20154;-60
2022/09/20 02:20:31;;;;;;;0.82;0.40;;;;;;;14.21;51.03;99553.91;3139938;28;20079;-60
2022/09/20 02:22:18;;;;;;;1.10;0.40;;;;;;;14.08;51.17;99546.00;3139878;28;20048;-60
2022/09/20 02:24:01;;;;;;;2.47;0.50;;;;;;;14.24;51.08;99567.66;3139691;28;20121;-60
2022/09/20 02:25:59;;;;;;;2.50;0.70;;;;;;;14.21;51.25;99567.84;3139493;28;20052;-60
2022/09/20 02:27:39;;;;;;;0.75;0.38;;;;;;;14.23;50.79;99562.53;3140288;28;20048;-60
2022/09/20 02:29:25;;;;;;;1.20;0.50;;;;;;;14.18;51.10;99562.81;3140297;28;20160;-60
2022/09/20 02:31:11;;;;;;;1.55;0.43;;;;;;;14.17;51.16;99566.38;3133531;28;20064;-60
2022/09/20 02:33:10;;;;;;;1.38;0.40;;;;;;;14.15;50.90;99567.41;3134099;28;20056;-60
2022/09/20 02:35:19;;;;;;;1.63;0.80;;;;;;;14.18;50.78;99575.06;3137061;28;20040;-61
2022/09/20 02:37:02;;;;;;;3.35;0.63;;;;;;;14.18;50.84;99580.31;3140049;28;20127;-60
2022/09/20 02:38:50;;;;;;;0.95;0.40;;;;;;;14.17;50.69;99576.84;3140225;28;20078;-60
2022/09/20 02:40:39;;;;;;;0.60;0.55;;;;;;;14.15;50.50;99577.88;3139984;28;20106;-60
2022/09/20 02:42:17;;;;;;;1.75;0.52;;;;;;;14.14;50.38;99582.28;3139909;28;20255;-60
2022/09/20 02:43:58;;;;;;;1.27;0.52;;;;;;;14.12;50.70;99576.28;3139799;28;20171;-60
2022/09/20 02:45:39;;;;;;;0.85;0.50;;;;;;;14.08;50.72;99585.28;3139871;28;20052;-60
2022/09/20 02:47:21;;;;;;;2.80;0.70;;;;;;;14.07;50.65;99594.91;3138665;28;20197;-60
2022/09/20 02:49:00;;;;;;;0.70;0.40;;;;;;;14.03;51.14;99584.72;3139533;28;20081;-60
2022/09/20 02:50:42;;;;;;;1.65;0.50;;;;;;;13.99;50.86;99585.84;3141190;28;20821;-60
2022/09/20 02:52:26;;;;;;;1.63;0.55;;;;;;;13.94;51.42;99588.75;3139593;28;20114;-60
2022/09/20 02:54:06;;;;;;;0.45;0.35;;;;;;;13.85;51.58;99592.78;3133665;28;20064;-61
2022/09/20 02:55:47;;;;;;;4.07;0.80;;;;;;;13.75;51.83;99582.97;3133930;28;20060;-61
2022/09/20 02:57:26;;;;;;;1.38;0.50;;;;;;;13.68;52.16;99590.38;3134141;28;20052;-60
2022/09/20 02:59:06;;;;;;;1.05;0.57;;;;;;;13.65;52.25;99588.78;3134355;28;20258;-60
2022/09/20 03:00:48;;;;;;;2.17;0.80;;;;;;;13.60;52.07;99590.00;3134497;28;20056;-60
2022/09/20 03:02:27;;;;;;;0.80;0.50;;;;;;;13.56;52.30;99589.34;3139647;28;20059;-60
2022/09/20 03:04:09;;;;;;;1.15;0.50;;;;;;;13.56;52.59;99596.34;3139383;28;20045;-60
2022/09/20 03:05:51;;;;;;;1.35;0.57;;;;;;;13.52;52.58;99590.47;3138824;28;20065;-60
2022/09/20 03:07:35;;;;;;;1.27;0.70;;;;;;;13.50;52.67;99596.72;3134797;28;20129;-60
2022/09/20 03:09:13;;;;;;;;;;;;;;;13.45;52.59;99591.75;3139341;28;20062;-60
2022/09/20 03:10:57;;;;;;;1.20;0.60;;;;;;;13.44;52.76;99595.31;3138948;28;20317;-60
2022/09/20 03:12:38;;;;;;;1.05;0.68;;;;;;;13.41;52.87;99593.72;3138783;28;20056;-60
2022/09/20 03:14:17;;;;;;;1.17;0.70;;;;;;;13.41;52.79;99593.72;3138608;28;20079;-60
2022/09/20 03:16:01;;;;;;;0.73;0.57;;;;;;;13.47;52.37;99591.69;3138788;28;20052;-60
2022/09/20 03:17:41;;;;;;;;;;;;;;;13.38;52.69;99606.16;3139205;28;20139;-61
2022/09/20 03:19:21;;;;;;;0.98;0.60;;;;;;;13.38;52.75;99603.53;3138788;28;20014;-60
2022/09/20 03:21:00;;;;;;;3.55;0.57;;;;;;;13.39;52.49;99603.44;3138710;28;20105;-60
2022/09/20 03:22:46;;;;;;;1.02;0.60;;;;;;;13.38;52.45;99600.91;3138518;28;20058;-61
2022/09/20 03:24:28;;;;;;;1.70;0.80;;;;;;;13.37;52.59;99601.88;3132353;28;20057;-60
2022/09/20 03:26:12;;;;;;;1.90;1.05;;;;;;;13.36;52.60;99610.63;3132832;28;20541;-60
2022/09/20 03:27:55;;;;;;;1.83;0.82;;;;;;;13.33;52.43;99606.41;3133960;28;20075;-60
2022/09/20 03:29:42;;;;;;;2.90;0.75;;;;;;;13.35;52.40;99607.16;3137828;28;20383;-60
2022/09/20 03:31:27;;;;;;;1.58;0.88;;;;;;;13.35;52.55;99604.56;3135686;28;20052;-60
2022/09/20 03:33:10;;;;;;;1.23;0.70;;;;;;;13.31;52.24;99607.44;3138858;28;20079;-61
2022/09/20 03:34:56;;;;;;;2.08;0.90;;;;;;;13.27;52.61;99606.78;3137845;28;20145;-60
2022/09/20 03:36:48;;;;;;;1.55;0.80;;;;;;;13.23;52.47;99613.09;3138846;28;20503;-59
2022/09/20 03:38:38;;;;;;;1.25;0.70;;;;;;;13.15;52.55;99607.47;3128660;28;20057;-59
2022/09/20 03:40:40;;;;;;;1.10;0.70;;;;;;;13.22;52.75;99614.00;3139276;28;20053;-61
2022/09/20 03:42:18;;;;;;;1.30;0.73;;;;;;;13.20;52.62;99613.28;3135481;28;20056;-59
2022/09/20 03:44:05;;;;;;;1.02;0.63;;;;;;;13.19;52.74;99603.75;3138707;28;20056;-59
2022/09/20 03:45:52;;;;;;;1.23;0.80;;;;;;;13.18;52.88;99620.38;3139479;28;20124;-59
2022/09/20 03:47:39;;;;;;;3.13;0.85;;;;;;;13.16;52.83;99609.16;3139706;28;20154;-59
2022/09/20 03:49:49;;;;;;;0.95;0.60;;;;;;;13.10;52.96;99610.38;3139172;28;20147;-61
2022/09/20 03:51:28;;;;;;;0.68;0.60;;;;;;;13.08;53.23;99607.00;3139498;28;20056;-62
2022/09/20 03:53:31;;;;;;;1.15;0.75;;;;;;;13.11;53.14;99606.00;3139140;28;20114;-59
2022/09/20 03:55:44;;;;;;;1.33;0.80;;;;;;;13.08;53.68;99612.22;3139291;28;20113;-60
2022/09/20 03:57:34;;;;;;;1.13;0.52;;;;;;;12.92;53.72;99587.91;3134411;28;20052;-62
2022/09/20 03:59:42;;;;;;;0.93;0.75;;;;;;;13.07;53.82;99609.69;3139177;28;20048;-61
2022/09/20 04:01:34;;;;;;;1.25;0.70;;;;;;;13.06;53.42;99608.84;3134447;28;20079;-60
2022/09/20 04:03:35;;;;;;;3.28;0.82;;;;;;;13.06;53.63;99623.72;3136008;28;20067;-61
2022/09/20 04:05:14;;;;;;;3.15;0.73;;;;;;;13.07;53.87;99614.91;3139160;28;20448;-60
2022/09/20 04:07:05;;;;;;;1.40;0.60;;;;;;;13.06;53.87;99621.09;3137431;28;20078;-61
2022/09/20 04:08:53;;;;;;;2.92;0.90;;;;;;;13.08;53.44;99620.06;3139306;28;20052;-60
2022/09/20 04:10:49;;;;;;;2.03;0.80;;;;;;;13.07;53.53;99625.38;3135417;28;20059;-61
2022/09/20 04:12:30;;;;;;;2.15;0.73;;;;;;;13.10;53.52;99625.19;3144337;28;20563;-61
2022/09/20 04:14:12;;;;;;;0.82;0.80;;;;;;;13.09;53.36;99621.75;3144004;28;20087;-61
2022/09/20 04:15:53;;;;;;;1.05;0.80;;;;;;;13.08;53.78;99629.69;3144787;28;20053;-61
2022/09/20 04:17:36;;;;;;;0.95;0.70;;;;;;;13.08;53.87;99627.09;3144514;28;20052;-61
2022/09/20 04:19:16;;;;;;;2.07;0.77;;;;;;;13.07;53.87;99630.59;3144433;28;20118;-61
2022/09/20 04:20:55;;;;;;;1.15;0.90;;;;;;;13.07;53.87;99634.06;3143794;28;20656;-61
2022/09/20 04:22:29;;;;;;;1.40;1.00;;;;;;;13.05;53.56;99635.09;3144410;28;20110;-61
2022/09/20 04:24:05;;;;;;;1.15;0.70;;;;;;;13.05;53.58;99628.09;3144488;28;20052;-61
2022/09/20 04:25:41;;;;;;;3.75;0.80;;;;;;;13.07;53.95;99631.44;3144602;28;20159;-60
2022/09/20 04:27:18;;;;;;;1.63;0.98;;;;;;;13.07;53.86;99633.22;3144223;28;20093;-61
2022/09/20 04:28:55;;;;;;;2.22;1.20;;;;;;;13.05;53.55;99638.56;3144512;28;20052;-61
2022/09/20 04:30:31;;;;;;;4.35;0.85;;;;;;;13.02;53.63;99632.66;3143681;28;20056;-61
2022/09/20 04:32:15;;;;;;;1.30;0.77;;;;;;;13.00;53.67;99639.75;3144312;28;20569;-60
2022/09/20 04:33:51;;;;;;;1.42;0.98;;;;;;;12.94;53.70;99636.53;3140519;28;20102;-61
2022/09/20 04:37:31;;;;;;;2.08;0.70;;;;;;;12.96;53.99;99636.47;3143854;28;20040;-60
2022/09/20 04:39:16;;;;;;;1.23;0.70;;;;;;;12.96;53.43;99639.94;3144111;28;20049;-61
2022/09/20 04:41:04;;;;;;;7.60;0.95;;;;;;;12.94;53.49;99646.16;3142846;28;20052;-60
2022/09/20 04:43:11;;;;;;;4.07;0.80;;;;;;;12.91;53.79;99646.34;3144342;28;20049;-59
2022/09/20 04:45:16;;;;;;;2.70;0.98;;;;;;;12.86;53.86;99643.13;3144426;28;21819;-61
2022/09/20 04:47:07;;;;;;;;;;;;;;;12.84;53.79;99648.47;3126652;28;20055;-61
2022/09/20 04:49:17;;;;;;;1.20;0.82;;;;;;;12.86;53.80;99651.81;3144729;28;20461;-61
2022/09/20 04:51:34;;;;;;;3.72;1.05;;;;;;;12.88;53.57;99657.81;3145415;28;20051;-61
2022/09/20 04:53:24;;;;;;;2.97;1.08;;;;;;;12.90;53.45;99657.75;3146103;28;20044;-60
2022/09/20 04:55:29;;;;;;;3.88;1.35;;;;;;;12.91;53.65;99662.03;3144719;28;20476;-61
2022/09/20 04:57:33;;;;;;;2.05;1.20;;;;;;;12.94;53.69;99665.31;3145362;28;20556;-60
2022/09/20 04:59:09;;;;;;;3.63;1.63;;;;;;;12.84;53.86;99639.78;3123163;28;20041;-60
2022/09/20 05:00:58;;;;;;;3.22;0.90;;;;;;;12.99;53.72;99675.50;3145839;28;20045;-60
2022/09/20 05:02:59;;;;;;;2.85;1.00;;;;;;;13.02;53.68;99674.50;3146004;28;20056;-60
2022/09/20 05:05:16;;;;;;;1.30;0.95;;;;;;;13.04;53.66;99680.44;3143773;28;20041;-59
2022/09/20 05:07:17;;;;;;;3.33;0.82;;;;;;;13.06;53.30;99681.22;3145931;28;20135;-63
2022/09/20 05:09:23;;;;;;;3.97;0.93;;;;;;;13.07;53.59;99685.50;3143357;28;20537;-60
2022/09/20 05:11:17;;;;;;;9.88;6.13;;;;;;;13.12;53.55;99686.94;3145188;28;20084;-62
2022/09/20 05:13:11;;;;;;;7.65;4.43;;;;;;;13.17;53.25;99681.44;3143618;28;20525;-62
2022/09/20 05:15:11;;;;;;;8.95;5.90;;;;;;;13.23;53.00;99680.25;3141988;28;20506;-61
2022/09/20 05:17:04;;;;;;;5.25;2.22;;;;;;;13.29;53.01;99678.16;3143910;28;20045;-62
2022/09/20 05:19:03;;;;;;;31.13;17.40;;;;;;;13.38;53.13;99688.06;3144780;28;20091;-61
2022/09/20 05:21:05;;;;;;;5.50;1.20;;;;;;;13.45;52.62;99688.53;3144913;28;20128;-59
2022/09/20 05:23:09;;;;;;;2.97;0.90;;;;;;;13.53;52.02;99675.88;3144433;28;20599;-59
2022/09/20 05:25:05;;;;;;;;;;;;;;;13.51;52.01;99669.03;3145573;28;20045;-60
2022/09/20 05:26:51;;;;;;;1.17;0.90;;;;;;;13.56;51.98;99664.38;3144225;28;19924;-59
2022/09/20 05:28:31;;;;;;;2.22;0.88;;;;;;;13.60;51.90;99665.88;3145357;28;20134;-60
2022/09/20 05:30:07;;;;;;;6.00;0.95;;;;;;;13.58;51.70;99660.75;3145354;28;20441;-59
2022/09/20 05:31:44;;;;;;;0.93;0.70;;;;;;;13.64;51.67;99668.22;3144897;28;20080;-62
2022/09/20 05:33:24;;;;;;;7.35;3.95;;;;;;;13.67;51.53;99671.59;3141119;28;20102;-59
2022/09/20 05:35:04;;;;;;;6.72;2.95;;;;;;;13.74;51.19;99673.75;3145413;28;20048;-61
2022/09/20 05:36:45;;;;;;;3.78;1.60;;;;;;;13.77;50.94;99660.47;3144360;28;20044;-61
2022/09/20 05:38:28;;;;;;;5.40;1.13;;;;;;;13.83;51.10;99674.97;3144702;28;20044;-59
2022/09/20 05:40:12;;;;;;;2.00;1.00;;;;;;;13.80;50.61;99675.16;3141943;28;20498;-60
2022/09/20 05:41:53;;;;;;;2.28;1.00;;;;;;;13.78;50.98;99672.63;3144461;28;20084;-59
2022/09/20 05:43:32;;;;;;;1.33;0.80;;;;;;;13.78;50.79;99677.88;3144832;28;20103;-59
2022/09/20 05:45:20;;;;;;;4.53;1.58;;;;;;;13.77;50.79;99684.03;3144890;28;20089;-59
2022/09/20 05:47:04;;;;;;;3.03;1.00;;;;;;;13.76;50.63;99684.97;3144748;28;20139;-59
2022/09/20 05:48:46;;;;;;;4.43;2.30;;;;;;;13.77;50.90;99684.03;3144598;28;20048;-60
2022/09/20 05:50:38;;;;;;;2.85;1.35;;;;;;;13.83;51.02;99694.13;3144504;28;20455;-60
2022/09/20 05:52:27;;;;;;;2.72;0.80;;;;;;;13.86;50.71;99690.47;3144281;28;20057;-60
2022/09/20 05:54:14;;;;;;;7.40;2.10;;;;;;;13.87;50.85;99700.00;3144501;28;20052;-59
2022/09/20 05:56:02;;;;;;;2.92;1.38;;;;;;;13.85;50.79;99694.88;3144732;28;20150;-59
2022/09/20 05:57:49;;;;;;;3.38;1.33;;;;;;;13.89;50.85;99693.75;3145149;28;20490;-60
2022/09/20 05:59:41;;;;;;;2.17;1.02;;;;;;;13.93;50.52;99693.56;3138830;28;20059;-60
2022/09/20 06:01:20;;;;;;;6.28;1.05;;;;;;;13.99;50.70;99693.19;3140115;28;20052;-60
2022/09/20 06:02:58;;;;;;;2.05;1.15;;;;;;;14.07;50.21;99699.63;3140841;28;20041;-59
2022/09/20 06:04:38;;;;;;;1.83;0.98;;;;;;;14.11;50.14;99697.69;3144768;28;20058;-60
2022/09/20 06:06:14;;;;;;;3.97;1.20;;;;;;;14.15;49.72;99701.78;3144471;28;20045;-61
2022/09/20 06:08:23;;;;;;;1.20;0.90;;;;;;;14.19;49.49;99700.66;3144675;28;20059;-62
2022/09/20 06:10:24;;;;;;;5.88;1.00;;;;;;;14.23;49.39;99701.34;3144641;28;20044;-60
2022/09/20 06:12:16;;;;;;;1.10;0.75;;;;;;;14.26;49.41;99696.75;3145701;28;20458;-60
2022/09/20 06:14:03;;;;;;;4.32;1.08;;;;;;;14.30;49.33;99698.22;3144851;28;20143;-59
2022/09/20 06:15:44;;;;;;;6.07;1.00;;;;;;;14.36;49.18;99701.41;3145679;28;20056;-60
2022/09/20 06:17:25;;;;;;;2.92;1.10;;;;;;;14.33;49.39;99698.03;3145511;28;20090;-60
2022/09/20 06:19:06;;;;;;;2.45;1.08;;;;;;;14.37;49.28;99703.06;3138998;28;20521;-61
2022/09/20 06:20:48;;;;;;;1.42;1.05;;;;;;;14.38;49.18;99703.00;3139678;28;20053;-61
2022/09/20 06:22:26;;;;;;;3.30;1.08;;;;;;;14.45;49.47;99706.06;3139934;28;20060;-61
2022/09/20 06:24:01;;;;;;;2.83;0.98;;;;;;;14.48;49.62;99698.00;3144307;28;20055;-61
2022/09/20 06:25:41;;;;;;;1.35;1.15;;;;;;;14.52;49.00;99702.16;3142872;28;20048;-61
2022/09/20 06:27:20;;;;;;;3.00;0.80;;;;;;;14.52;48.93;99707.38;3142952;28;20122;-60
2022/09/20 06:28:58;;;;;;;4.82;1.60;;;;;;;14.56;48.78;99711.50;3142731;28;20596;-60
2022/09/20 06:30:34;;;;;;;1.60;1.00;;;;;;;14.58;48.82;99709.63;3145274;28;20060;-60
2022/09/20 06:32:07;;;;;;;4.53;0.98;;;;;;;14.59;48.40;99711.31;3140722;28;20041;-62
2022/09/20 06:33:44;;;;;;;3.67;1.02;;;;;;;14.55;48.29;99712.44;3143646;28;20052;-62
2022/09/20 06:35:16;;;;;;;10.43;2.20;;;;;;;14.57;48.24;99711.41;3144795;28;20098;-61
2022/09/20 06:42:46;;;;;;;3.38;1.00;;;;;;;14.62;47.60;99718.16;3138259;28;20186;-61
2022/09/20 06:44:18;;;;;;;1.60;0.90;;;;;;;14.63;47.70;99710.19;3143541;28;20676;-60
2022/09/20 06:45:49;;;;;;;2.33;1.00;;;;;;;14.69;47.75;99717.66;3144070;28;20040;-60
2022/09/20 06:47:22;;;;;;;4.00;0.90;;;;;;;14.74;47.66;99720.81;3144920;28;20080;-60
2022/09/20 06:48:54;;;;;;;6.60;1.08;;;;;;;14.77;47.56;99723.25;3144492;28;20079;-62
2022/09/20 06:50:26;;;;;;;5.40;1.25;;;;;;;14.80;47.45;99722.22;3144434;28;20070;-61
2022/09/20 06:51:58;;;;;;;3.65;0.98;;;;;;;14.88;47.24;99730.44;3147096;28;20056;-63
2022/09/20 06:53:35;;;;;;;6.85;1.00;;;;;;;14.89;46.40;99723.41;3144524;28;20048;-64
2022/09/20 06:55:11;;;;;;;3.20;0.90;;;;;;;14.86;46.50;99721.81;3138523;28;20052;-63
2022/09/20 06:56:45;;;;;;;4.63;0.93;;;;;;;14.90;45.98;99722.47;3138438;28;20135;-62
2022/09/20 06:58:18;;;;;;;1.23;0.70;;;;;;;14.92;46.06;99731.09;3145017;28;20052;-62
2022/09/20 06:59:50;;;;;;;0.73;0.60;;;;;;;15.02;45.85;99729.53;3145198;28;20053;-62
2022/09/20 07:01:22;;;;;;;0.82;0.60;;;;;;;15.11;45.72;99726.31;3144628;28;20081;-62
2022/09/20 07:02:55;;;;;;;2.05;0.95;;;;;;;15.23;45.67;99728.16;3145097;28;20044;-62
2022/09/20 07:04:27;;;;;;;1.38;0.90;;;;;;;15.33;45.36;99724.94;3145069;28;20135;-62
2022/09/20 07:05:59;;;;;;;1.70;0.90;;;;;;;15.42;44.75;99738.28;3144388;28;20524;-63
2022/09/20 07:07:31;;;;;;;1.05;0.70;;;;;;;15.55;44.70;99740.06;3144856;28;20052;-64
2022/09/20 07:09:04;;;;;;;2.25;1.10;;;;;;;15.71;44.44;99735.53;3144964;28;20141;-63
2022/09/20 07:10:36;;;;;;;1.55;1.20;;;;;;;15.92;44.43;99739.31;3145039;28;20146;-63
2022/09/20 07:12:10;;;;;;;3.05;0.98;;;;;;;16.17;43.85;99742.88;3144514;28;20111;-62
2022/09/20 07:13:44;;;;;;;1.17;0.75;;;;;;;16.38;43.55;99736.09;3145175;28;20513;-64
2022/09/20 07:15:16;;;;;;;2.25;1.40;;;;;;;16.63;43.02;99738.81;3144756;28;20049;-63
2022/09/20 07:16:48;;;;;;;1.67;0.70;;;;;;;16.87;42.34;99734.44;3145087;28;20048;-63
2022/09/20 07:18:20;;;;;;;2.15;0.85;;;;;;;17.11;41.87;99733.63;3144538;28;20126;-63
2022/09/20 07:19:52;;;;;;;0.90;0.70;;;;;;;17.33;41.33;99736.31;3144776;28;20139;-63
2022/09/20 07:21:24;;;;;;;0.80;0.50;;;;;;;17.46;40.99;99712.59;3144810;28;20055;-63
2022/09/20 07:22:56;;;;;;;1.13;0.70;;;;;;;17.82;40.34;99735.31;3138467;28;20049;-63
2022/09/20 07:24:29;;;;;;;1.60;0.77;;;;;;;17.99;39.81;99723.50;3144613;28;20133;-63
2022/09/20 07:26:02;;;;;;;2.10;0.80;;;;;;;18.03;38.62;99718.81;3144450;28;20419;-62
2022/09/20 07:27:34;;;;;;;1.27;0.65;;;;;;;18.05;38.75;99724.81;3145104;28;20044;-60
2022/09/20 07:29:07;;;;;;;1.73;0.88;;;;;;;18.03;38.37;99727.56;3144566;28;20072;-62
2022/09/20 07:30:40;;;;;;;2.42;0.73;;;;;;;17.99;38.26;99725.28;3144538;28;20147;-62
2022/09/20 07:32:14;;;;;;;1.85;0.70;;;;;;;17.88;38.14;99731.38;3144763;28;20540;-61
2022/09/20 07:33:46;;;;;;;4.53;0.90;;;;;;;17.87;38.21;99734.97;3142729;28;20493;-61
2022/09/20 07:35:18;;;;;;;0.77;0.60;;;;;;;17.89;38.10;99741.78;3144832;28;20048;-61
2022/09/20 07:36:51;;;;;;;1.08;0.57;;;;;;;17.89;37.82;99722.50;3145099;28;20041;-62
2022/09/20 07:38:23;;;;;;;3.33;0.70;;;;;;;17.99;37.63;99725.28;3144708;28;20048;-61
2022/09/20 07:39:55;;;;;;;2.30;0.55;;;;;;;18.16;37.43;99728.28;3144145;28;20049;-62
2022/09/20 07:41:29;;;;;;;2.45;0.57;;;;;;;18.28;37.15;99733.53;3144953;28;20048;-61
2022/09/20 07:43:01;;;;;;;2.03;0.93;;;;;;;18.56;37.25;99727.78;3144800;28;20142;-62
2022/09/20 07:44:34;;;;;;;1.17;0.75;;;;;;;18.84;36.59;99734.38;3144468;28;20094;-62
2022/09/20 07:46:06;;;;;;;;;;;;;;;19.04;35.86;99729.25;3145200;28;20041;-62
2022/09/20 07:47:40;;;;;;;5.75;1.00;;;;;;;19.29;35.77;99736.03;3144530;28;20324;-62
2022/09/20 07:49:11;;;;;;;5.30;0.80;;;;;;;19.50;35.05;99717.56;3142836;28;20098;-61
2022/09/20 07:50:50;;;;;;;4.05;0.63;;;;;;;19.74;34.73;99720.78;3147858;28;20044;-61
2022/09/20 07:52:22;;;;;;;4.40;0.82;;;;;;;20.14;34.33;99724.47;3145008;28;20143;-59
2022/09/20 07:53:54;;;;;;;3.60;0.70;;;;;;;20.36;33.46;99726.13;3144293;28;20508;-60
2022/09/20 07:55:26;;;;;;;1.17;0.60;;;;;;;20.56;33.04;99716.47;3144920;28;20079;-61
2022/09/20 07:56:58;;;;;;;2.53;0.80;;;;;;;20.84;32.44;99730.72;3144522;28;20053;-62
2022/09/20 07:58:32;;;;;;;2.03;0.68;;;;;;;21.01;32.15;99723.94;3144730;28;20579;-61
2022/09/20 08:00:09;;;;;;;4.13;0.60;;;;;;;21.19;31.89;99726.72;3144556;28;20057;-61
2022/09/20 08:01:41;;;;;;;3.55;1.17;;;;;;;21.38;31.79;99705.53;3144484;28;20113;-62
2022/09/20 08:03:13;;;;;;;1.25;0.90;;;;;;;21.72;31.46;99723.66;3144622;28;20124;-61
2022/09/20 08:04:46;;;;;;;2.15;0.70;;;;;;;21.99;30.81;99705.16;3144886;28;20114;-61
2022/09/20 08:06:20;;;;;;;1.10;0.80;;;;;;;22.19;31.00;99705.94;3143968;28;20056;-61
2022/09/20 08:07:51;;;;;;;1.08;0.80;;;;;;;22.50;30.28;99713.59;3144069;28;20060;-63
2022/09/20 08:09:23;;;;;;;6.43;1.15;;;;;;;22.70;30.20;99701.91;3143594;28;20052;-61